Time;durP1;ratioP1;P1;durP2;ratioP2;P2;SDS_P1;SDS_P2;PMS_P1;PMS_P2;Temp;Humidity;BMP_temperature;BMP_pressure;BME280_temperature;BME280_humidity;BME280_pressure;Samples;Min_cycle;Max_cycle;Signal;HPM_P1;HPM_P2
2021/08/10 06:23:53;;;;;;;7.10;4.57;;;;;;;;;;5861641;23;20022;-86
2021/08/10 06:26:19;;;;;;;6.88;4.03;;;;;;;;;;4918055;29;20058;-81
2021/08/10 06:28:45;;;;;;;5.45;3.90;;;;;;;;;;4918534;29;20028;-83
2021/08/10 06:31:10;;;;;;;7.10;4.30;;;;;;;;;;4918564;29;20038;-82
2021/08/10 06:33:37;;;;;;;8.38;4.32;;;;;;;;;;4918336;29;20035;-82
2021/08/10 06:36:03;;;;;;;6.03;3.90;;;;;;;;;;4916872;29;20024;-82
2021/08/10 06:38:28;;;;;;;7.70;4.80;;;;;;;;;;4918167;29;20032;-86
2021/08/10 06:40:53;;;;;;;7.40;4.45;;;;;;;;;;4917489;29;20449;-86
2021/08/10 06:43:19;;;;;;;8.27;3.97;;;;;;;;;;4918179;29;20379;-86
2021/08/10 06:45:44;;;;;;;5.95;4.22;;;;;;;;;;4918201;29;20079;-91
2021/08/10 06:48:10;;;;;;;7.25;4.28;;;;;;;;;;4917981;29;20115;-87
2021/08/10 06:50:36;;;;;;;6.35;4.40;;;;;;;;;;4916686;29;20028;-89
2021/08/10 06:53:02;;;;;;;5.55;4.03;;;;;;;;;;4917750;29;20028;-86
2021/08/10 06:55:27;;;;;;;6.18;4.32;;;;;;;;;;4917830;29;20039;-85
2021/08/10 06:57:53;;;;;;;7.15;4.18;;;;;;;;;;4917991;29;20115;-86
2021/08/10 07:00:18;;;;;;;5.55;4.40;;;;;;;;;;4917630;29;20030;-85
2021/08/10 07:02:44;;;;;;;6.53;4.60;;;;;;;;;;4917732;29;20032;-87
2021/08/10 07:05:09;;;;;;;7.00;4.72;;;;;;;;;;4917796;29;20024;-83
2021/08/10 07:07:35;;;;;;;7.60;4.10;;;;;;;;;;4917988;29;20522;-81
2021/08/10 07:10:02;;;;;;;6.45;4.25;;;;;;;;;;4917538;29;20039;-80
2021/08/10 07:12:27;;;;;;;7.47;4.30;;;;;;;;;;4917731;29;20032;-82
2021/08/10 07:14:53;;;;;;;9.48;4.35;;;;;;;;;;4917555;29;20034;-87
2021/08/10 07:17:18;;;;;;;6.45;4.60;;;;;;;;;;4917573;29;20051;-85
2021/08/10 07:19:44;;;;;;;6.25;4.05;;;;;;;;;;4917500;29;20055;-81
2021/08/10 07:22:10;;;;;;;5.88;3.75;;;;;;;;;;4917611;29;20467;-85
2021/08/10 07:24:35;;;;;;;6.32;5.13;;;;;;;;;;4917562;29;20281;-88
2021/08/10 07:27:00;;;;;;;5.63;3.78;;;;;;;;;;4917364;29;20111;-83
2021/08/10 07:29:26;;;;;;;7.20;4.18;;;;;;;;;;4917578;29;20032;-86
2021/08/10 07:31:51;;;;;;;5.28;3.97;;;;;;;;;;4917845;29;20038;-84
2021/08/10 07:34:17;;;;;;;13.68;4.72;;;;;;;;;;4917560;29;20028;-85
2021/08/10 07:36:42;;;;;;;12.90;5.10;;;;;;;;;;4917260;29;20053;-83
2021/08/10 07:39:08;;;;;;;6.10;4.10;;;;;;;;;;4917404;29;20054;-82
2021/08/10 07:41:33;;;;;;;7.18;3.67;;;;;;;;;;4917397;29;20032;-85
2021/08/10 07:43:59;;;;;;;6.72;4.07;;;;;;;;;;4917266;29;20050;-86
2021/08/10 07:46:24;;;;;;;6.97;4.13;;;;;;;;;;4919303;29;20032;-82
2021/08/10 08:25:02;;;;;;;5.88;4.05;;;;;;;;;;5182790;23;20071;-84
2021/08/10 08:27:28;;;;;;;4.80;3.78;;;;;;;;;;4939378;29;20024;-80
2021/08/10 08:29:53;;;;;;;5.28;3.75;;;;;;;;;;4940144;29;20031;-85
2021/08/10 08:32:19;;;;;;;5.47;4.03;;;;;;;;;;4939527;29;20107;-83
2021/08/10 08:34:44;;;;;;;6.40;3.88;;;;;;;;;;4939561;29;20085;-82
2021/08/10 08:37:13;;;;;;;8.57;3.90;;;;;;;;;;4939634;29;20035;-84
2021/08/10 08:39:38;;;;;;;5.60;4.17;;;;;;;;;;4939369;29;20106;-83
2021/08/10 08:42:04;;;;;;;5.68;4.07;;;;;;;;;;4939275;29;20151;-83
2021/08/10 08:44:34;;;;;;;9.05;4.18;;;;;;;;;;4939114;29;20475;-83
2021/08/10 08:47:05;;;;;;;5.85;3.85;;;;;;;;;;4939193;29;20478;-82
2021/08/10 08:49:32;;;;;;;9.52;4.60;;;;;;;;;;4939034;29;20028;-83
2021/08/10 08:52:03;;;;;;;7.20;4.63;;;;;;;;;;4938921;29;20038;-81
2021/08/10 08:54:31;;;;;;;6.97;5.00;;;;;;;;;;4938770;29;20095;-81
2021/08/10 08:56:57;;;;;;;8.43;6.00;;;;;;;;;;4939121;29;20040;-82
2021/08/10 08:59:23;;;;;;;9.73;5.35;;;;;;;;;;4939040;29;20483;-79
2021/08/10 09:01:51;;;;;;;5.22;4.72;;;;;;;;;;4938622;29;20406;-77
2021/08/10 09:04:17;;;;;;;8.30;5.45;;;;;;;;;;4938275;29;20067;-77
2021/08/10 09:06:42;;;;;;;6.78;5.07;;;;;;;;;;4938817;29;20067;-76
2021/08/10 09:09:27;;;;;;;6.43;4.35;;;;;;;;;;4938805;29;20027;-76
2021/08/10 09:11:59;;;;;;;8.70;4.55;;;;;;;;;;4938590;29;20051;-79
2021/08/10 09:14:41;;;;;;;5.90;4.45;;;;;;;;;;4938983;29;20161;-77
2021/08/10 09:17:08;;;;;;;6.10;4.28;;;;;;;;;;4938626;29;20378;-78
2021/08/10 09:20:07;;;;;;;4.82;4.38;;;;;;;;;;4946520;23;20060;-77
2021/08/10 09:22:33;;;;;;;;;;;;;;;;;;4934061;29;20074;-79
2021/08/10 09:25:11;;;;;;;6.50;4.22;;;;;;;;;;4938485;29;20342;-81
2021/08/10 09:27:39;;;;;;;4.68;4.13;;;;;;;;;;4938263;29;20043;-81
2021/08/10 09:30:10;;;;;;;5.93;4.55;;;;;;;;;;4938478;29;20028;-81
2021/08/10 09:33:00;;;;;;;5.43;4.32;;;;;;;;;;4938497;29;20024;-81
2021/08/10 09:35:31;;;;;;;5.47;4.10;;;;;;;;;;4938141;29;20027;-81
2021/08/10 09:38:03;;;;;;;7.45;4.97;;;;;;;;;;4922697;29;20427;-81
2021/08/10 09:40:38;;;;;;;7.97;4.63;;;;;;;;;;4939045;29;20063;-79
2021/08/10 09:43:24;;;;;;;7.82;4.53;;;;;;;;;;4937934;29;20044;-81
2021/08/10 09:46:14;;;;;;;9.27;4.72;;;;;;;;;;4937925;29;20023;-81
2021/08/10 09:48:51;;;;;;;9.75;5.30;;;;;;;;;;4938174;29;20079;-86
2021/08/10 09:51:24;;;;;;;9.68;5.13;;;;;;;;;;4940089;29;20051;-81
2021/08/10 09:54:04;;;;;;;5.53;4.50;;;;;;;;;;4944382;29;20031;-80
2021/08/10 09:56:52;;;;;;;5.53;4.00;;;;;;;;;;4943397;29;20028;-82
2021/08/10 09:59:27;;;;;;;10.13;5.10;;;;;;;;;;4941925;29;20114;-84
2021/08/10 10:02:01;;;;;;;9.98;5.35;;;;;;;;;;4923741;29;20067;-80
2021/08/10 10:04:31;;;;;;;5.55;4.15;;;;;;;;;;4942953;29;20028;-79
2021/08/10 10:07:07;;;;;;;5.47;4.05;;;;;;;;;;4942443;29;20028;-80
2021/08/10 10:09:34;;;;;;;10.00;5.88;;;;;;;;;;4929702;29;20054;-84
2021/08/10 10:12:00;;;;;;;15.85;5.57;;;;;;;;;;4944738;29;20028;-82
2021/08/10 10:14:28;;;;;;;11.52;5.50;;;;;;;;;;4941684;29;20059;-83
2021/08/10 10:16:54;;;;;;;10.32;5.20;;;;;;;;;;4942316;29;20088;-83
2021/08/10 10:19:21;;;;;;;8.88;5.05;;;;;;;;;;4943548;29;20043;-81
2021/08/10 10:21:58;;;;;;;5.55;4.53;;;;;;;;;;4944329;29;20387;-80
2021/08/10 10:24:25;;;;;;;7.57;5.15;;;;;;;;;;4945962;29;20152;-80
2021/08/10 10:26:59;;;;;;;10.13;4.35;;;;;;;;;;4943497;29;20030;-80
2021/08/10 10:29:26;;;;;;;12.73;5.57;;;;;;;;;;4938231;29;20036;-82
2021/08/10 10:31:52;;;;;;;16.77;6.15;;;;;;;;;;4937911;29;20395;-88
2021/08/10 10:34:18;;;;;;;5.03;4.20;;;;;;;;;;4938232;29;20477;-82
2021/08/10 10:36:46;;;;;;;6.38;4.28;;;;;;;;;;4937964;29;20038;-82
2021/08/10 10:39:22;;;;;;;8.20;5.25;;;;;;;;;;4937937;29;20034;-82
2021/08/10 10:41:48;;;;;;;10.07;5.60;;;;;;;;;;4937744;29;20031;-82
2021/08/10 10:44:13;;;;;;;8.55;5.25;;;;;;;;;;4937304;29;20107;-83
2021/08/10 10:46:40;;;;;;;9.07;5.20;;;;;;;;;;4937550;29;20348;-88
2021/08/10 10:49:08;;;;;;;8.50;4.80;;;;;;;;;;4937976;29;20044;-82
2021/08/10 10:51:38;;;;;;;9.07;5.25;;;;;;;;;;4938147;29;20035;-81
2021/08/10 10:54:25;;;;;;;11.40;5.05;;;;;;;;;;4937929;29;20028;-80
2021/08/10 10:56:56;;;;;;;9.27;4.57;;;;;;;;;;4928333;29;20064;-84
2021/08/10 10:59:31;;;;;;;7.03;4.38;;;;;;;;;;4927130;29;20466;-83
2021/08/10 11:02:17;;;;;;;5.45;4.05;;;;;;;;;;4922791;29;20084;-84
2021/08/10 11:05:08;;;;;;;8.88;4.70;;;;;;;;;;4918230;29;20020;-84
2021/08/10 11:07:43;;;;;;;7.32;5.07;;;;;;;;;;4918058;29;20083;-84
2021/08/10 11:10:11;;;;;;;5.78;4.07;;;;;;;;;;4917848;29;20036;-84
2021/08/10 11:12:47;;;;;;;6.85;4.15;;;;;;;;;;4917935;29;20032;-84
2021/08/10 11:15:20;;;;;;;4.93;3.80;;;;;;;;;;4917612;29;20059;-83
2021/08/10 11:18:15;;;;;;;5.50;3.65;;;;;;;;;;4917595;29;20495;-84
2021/08/10 11:20:47;;;;;;;5.68;3.97;;;;;;;;;;4891341;29;20359;-85
2021/08/10 11:23:24;;;;;;;7.60;4.57;;;;;;;;;;4917693;29;20056;-83
2021/08/10 11:25:59;;;;;;;4.88;4.35;;;;;;;;;;4900558;29;20038;-83
2021/08/10 11:28:31;;;;;;;6.20;4.60;;;;;;;;;;4917327;29;20357;-84
2021/08/10 11:31:01;;;;;;;5.53;4.60;;;;;;;;;;4917699;29;20028;-79
2021/08/10 11:33:32;;;;;;;7.53;4.53;;;;;;;;;;4917431;29;20073;-84
2021/08/10 11:36:09;;;;;;;5.30;4.40;;;;;;;;;;4917337;29;20032;-84
2021/08/10 11:38:36;;;;;;;6.00;4.53;;;;;;;;;;4917141;29;20035;-85
2021/08/10 11:41:05;;;;;;;6.18;4.53;;;;;;;;;;4917087;29;20482;-85
2021/08/10 11:43:36;;;;;;;6.10;4.25;;;;;;;;;;4917143;29;20039;-81
2021/08/10 11:46:07;;;;;;;6.40;4.30;;;;;;;;;;4916808;29;20040;-86
2021/08/10 17:44:46;;;;;;;3.50;3.20;;;;;;;;;;4929276;29;20142;-79
2021/08/10 17:47:12;;;;;;;8.30;2.80;;;;;;;;;;4938208;29;20042;-80
2021/08/10 17:49:37;;;;;;;4.88;3.13;;;;;;;;;;4938178;29;20379;-81
2021/08/10 17:52:05;;;;;;;3.78;3.17;;;;;;;;;;4937795;29;20039;-79
2021/08/10 17:54:31;;;;;;;6.80;4.35;;;;;;;;;;4938048;29;20106;-81
2021/08/10 17:56:56;;;;;;;6.50;3.70;;;;;;;;;;4937880;29;20043;-80
2021/08/10 17:59:22;;;;;;;5.95;3.78;;;;;;;;;;4937893;29;20031;-82
2021/08/10 18:01:47;;;;;;;4.13;3.20;;;;;;;;;;4937589;29;20059;-78
2021/08/10 18:04:12;;;;;;;6.38;3.38;;;;;;;;;;4938071;29;20032;-77
2021/08/10 18:06:38;;;;;;;6.43;5.68;;;;;;;;;;4937751;29;20019;-76
2021/08/10 18:09:04;;;;;;;6.85;4.90;;;;;;;;;;4937674;29;20106;-78
2021/08/10 18:11:29;;;;;;;6.32;3.25;;;;;;;;;;4937705;29;20496;-77
2021/08/10 18:13:55;;;;;;;5.10;3.40;;;;;;;;;;4920669;29;20032;-77
2021/08/10 18:16:20;;;;;;;5.43;3.05;;;;;;;;;;4937593;29;20043;-77
2021/08/10 18:18:46;;;;;;;5.35;4.25;;;;;;;;;;4937493;29;20386;-78
2021/08/10 18:21:11;;;;;;;4.88;3.38;;;;;;;;;;4937138;29;20036;-80
2021/08/10 18:23:37;;;;;;;6.15;3.53;;;;;;;;;;4937388;29;20028;-79
2021/08/10 18:26:02;;;;;;;6.45;3.10;;;;;;;;;;4936964;29;20027;-82
2021/08/10 18:28:28;;;;;;;7.97;3.42;;;;;;;;;;4937484;29;20039;-79
2021/08/10 18:30:54;;;;;;;4.70;3.35;;;;;;;;;;4937316;29;20026;-79
2021/08/10 18:33:19;;;;;;;7.10;3.47;;;;;;;;;;4937416;29;20028;-79
2021/08/10 18:35:46;;;;;;;6.00;3.30;;;;;;;;;;4937362;29;20467;-79
2021/08/10 18:38:12;;;;;;;9.27;3.50;;;;;;;;;;4936123;29;20490;-78
2021/08/10 18:40:38;;;;;;;7.40;4.45;;;;;;;;;;4937546;29;20035;-79
2021/08/10 18:43:03;;;;;;;4.65;3.92;;;;;;;;;;4937093;29;20039;-79
2021/08/10 18:45:29;;;;;;;5.30;3.90;;;;;;;;;;4936868;29;20095;-80
2021/08/10 18:47:54;;;;;;;6.18;3.92;;;;;;;;;;4936948;29;20390;-79
2021/08/10 18:50:20;;;;;;;8.63;5.20;;;;;;;;;;4936856;29;20114;-80
2021/08/10 18:52:45;;;;;;;5.90;4.05;;;;;;;;;;4936797;29;20070;-79
2021/08/10 18:55:11;;;;;;;5.63;4.28;;;;;;;;;;4936829;29;20374;-79
2021/08/10 18:57:37;;;;;;;4.85;3.50;;;;;;;;;;4936727;29;20057;-79
2021/08/10 19:00:04;;;;;;;10.05;5.25;;;;;;;;;;4936963;29;20032;-79
2021/08/10 19:02:29;;;;;;;4.72;3.60;;;;;;;;;;4936709;29;20020;-79
2021/08/10 19:04:56;;;;;;;5.82;3.50;;;;;;;;;;4936814;29;20038;-79
2021/08/10 19:07:22;;;;;;;6.03;4.07;;;;;;;;;;4936929;29;20027;-79
2021/08/10 19:09:48;;;;;;;4.32;3.47;;;;;;;;;;4936828;29;20035;-78
2021/08/10 19:12:14;;;;;;;5.32;3.90;;;;;;;;;;4936739;29;20071;-79
2021/08/10 19:14:41;;;;;;;6.22;3.33;;;;;;;;;;4936652;29;20055;-80
2021/08/10 19:17:08;;;;;;;5.18;3.45;;;;;;;;;;4919449;29;20028;-79
2021/08/10 19:19:34;;;;;;;4.80;3.28;;;;;;;;;;4936485;29;20478;-79
2021/08/10 19:21:59;;;;;;;6.53;3.60;;;;;;;;;;4936368;29;20045;-79
2021/08/10 19:24:25;;;;;;;4.95;3.35;;;;;;;;;;4936450;29;20443;-78
2021/08/10 19:26:51;;;;;;;5.57;3.63;;;;;;;;;;4936558;29;20078;-79
2021/08/10 19:29:16;;;;;;;7.63;3.40;;;;;;;;;;4936475;29;20027;-79
2021/08/10 19:31:42;;;;;;;6.15;4.00;;;;;;;;;;4936257;29;20035;-78
2021/08/10 19:34:07;;;;;;;6.88;3.67;;;;;;;;;;4922508;29;20027;-79
2021/08/10 19:36:33;;;;;;;5.03;3.50;;;;;;;;;;4917577;29;20471;-79
2021/08/10 19:38:58;;;;;;;5.20;4.00;;;;;;;;;;4917540;29;20028;-79
2021/08/10 19:41:24;;;;;;;6.40;3.50;;;;;;;;;;4917112;29;20055;-79
2021/08/10 19:43:49;;;;;;;4.68;3.65;;;;;;;;;;4917550;29;20498;-79
2021/08/10 19:46:17;;;;;;;5.85;3.45;;;;;;;;;;4917066;29;20044;-78
2021/08/10 19:48:42;;;;;;;7.38;3.55;;;;;;;;;;4918738;29;20032;-80
2021/08/10 19:51:08;;;;;;;5.88;3.88;;;;;;;;;;4921999;29;20099;-81
2021/08/10 19:53:34;;;;;;;5.70;3.40;;;;;;;;;;4904212;29;20047;-79
2021/08/10 19:55:59;;;;;;;5.95;3.70;;;;;;;;;;4904147;29;20035;-79
2021/08/10 19:58:25;;;;;;;5.50;3.78;;;;;;;;;;4934597;29;20028;-79
2021/08/10 20:00:50;;;;;;;7.70;3.80;;;;;;;;;;4940030;29;20040;-79
2021/08/10 20:03:16;;;;;;;6.05;3.90;;;;;;;;;;4922565;29;20435;-79
2021/08/10 20:05:41;;;;;;;6.78;3.58;;;;;;;;;;4940058;29;20034;-78
2021/08/10 20:08:06;;;;;;;6.10;3.55;;;;;;;;;;4940044;29;20111;-79
2021/08/10 20:10:32;;;;;;;4.72;3.53;;;;;;;;;;4940121;29;20035;-80
2021/08/10 20:12:57;;;;;;;4.07;3.63;;;;;;;;;;4940200;29;20027;-79
2021/08/10 20:15:23;;;;;;;4.00;3.58;;;;;;;;;;4924436;29;20087;-79
2021/08/10 20:17:48;;;;;;;7.97;4.53;;;;;;;;;;4910447;29;20442;-79
2021/08/10 20:20:14;;;;;;;4.90;3.80;;;;;;;;;;4924397;29;20120;-80
2021/08/10 20:22:39;;;;;;;3.95;3.55;;;;;;;;;;4925510;29;20044;-80
2021/08/10 20:25:05;;;;;;;5.78;3.63;;;;;;;;;;4939574;29;20034;-80
2021/08/10 20:27:31;;;;;;;5.22;4.07;;;;;;;;;;4929240;29;20079;-78
2021/08/10 20:29:56;;;;;;;9.02;3.85;;;;;;;;;;4920432;29;20052;-81
2021/08/10 20:32:21;;;;;;;6.18;3.80;;;;;;;;;;4920470;29;20063;-81
2021/08/10 20:34:47;;;;;;;6.25;4.20;;;;;;;;;;4920073;29;20463;-82
2021/08/10 20:37:12;;;;;;;7.53;3.80;;;;;;;;;;4939161;29;20028;-80
2021/08/10 20:39:38;;;;;;;6.32;3.65;;;;;;;;;;4939344;29;20051;-81
2021/08/10 20:42:03;;;;;;;4.93;4.05;;;;;;;;;;4939031;29;20482;-79
2021/08/10 20:44:29;;;;;;;5.22;3.60;;;;;;;;;;4938821;29;20051;-82
2021/08/10 20:46:54;;;;;;;5.03;3.50;;;;;;;;;;4936938;29;20379;-78
2021/08/10 20:49:20;;;;;;;4.95;3.90;;;;;;;;;;4920368;29;20036;-78
2021/08/10 20:51:45;;;;;;;5.15;3.88;;;;;;;;;;4920457;29;20032;-79
2021/08/10 20:54:11;;;;;;;4.75;4.03;;;;;;;;;;4920375;29;20035;-79
2021/08/10 20:56:38;;;;;;;6.07;4.22;;;;;;;;;;4920110;29;20070;-78
2021/08/10 20:59:03;;;;;;;4.30;3.60;;;;;;;;;;4920077;29;20025;-80
2021/08/10 21:01:29;;;;;;;7.53;4.00;;;;;;;;;;4918890;29;20100;-79
2021/08/10 21:03:55;;;;;;;5.55;4.25;;;;;;;;;;4919709;29;20387;-79
2021/08/10 21:06:20;;;;;;;6.00;4.78;;;;;;;;;;4920120;29;20111;-80
2021/08/10 21:08:46;;;;;;;5.93;4.22;;;;;;;;;;4920184;29;20119;-79
2021/08/10 21:11:12;;;;;;;6.65;4.50;;;;;;;;;;4919904;29;20032;-80
2021/08/10 21:13:37;;;;;;;6.15;4.13;;;;;;;;;;4920083;29;20077;-80
2021/08/10 21:16:04;;;;;;;4.78;3.50;;;;;;;;;;4919765;29;20024;-82
2021/08/10 21:18:29;;;;;;;4.78;3.92;;;;;;;;;;4902609;29;20119;-82
2021/08/10 21:20:55;;;;;;;5.22;4.22;;;;;;;;;;4919460;29;20110;-82
2021/08/10 21:23:20;;;;;;;6.90;3.95;;;;;;;;;;4919536;29;20063;-80
2021/08/10 21:25:46;;;;;;;5.90;4.05;;;;;;;;;;4919568;29;20039;-80
2021/08/10 21:28:11;;;;;;;4.28;3.85;;;;;;;;;;4919647;29;20024;-79
2021/08/10 21:30:37;;;;;;;7.35;3.92;;;;;;;;;;4919347;29;20036;-79
2021/08/10 21:33:03;;;;;;;6.25;4.07;;;;;;;;;;4919405;29;20024;-81
2021/08/10 21:35:29;;;;;;;6.45;4.00;;;;;;;;;;4902266;29;20131;-81
2021/08/10 21:37:54;;;;;;;6.68;3.95;;;;;;;;;;4919324;29;20024;-79
2021/08/10 21:40:20;;;;;;;10.13;4.20;;;;;;;;;;4919118;29;20055;-80
2021/08/10 21:42:45;;;;;;;8.57;4.40;;;;;;;;;;4919335;29;20036;-80
2021/08/10 21:45:11;;;;;;;4.75;4.20;;;;;;;;;;4925513;29;20401;-81
2021/08/10 21:47:37;;;;;;;4.68;4.18;;;;;;;;;;4927463;29;20024;-80
2021/08/10 21:50:04;;;;;;;6.13;4.15;;;;;;;;;;4929058;29;20024;-80
